sensor_id;sensor_type;location;lat;lon;timestamp;P1;durP1;ratioP1;P2;durP2;ratioP2
59336;SDS011;45115;52.002;4.686;2023-04-24T00:02:21;6.78;;;4.35;;
59336;SDS011;45115;52.002;4.686;2023-04-24T00:04:48;8.05;;;4.63;;
59336;SDS011;45115;52.002;4.686;2023-04-24T00:07:14;7.28;;;4.30;;
59336;SDS011;45115;52.002;4.686;2023-04-24T00:09:42;8.57;;;3.88;;
59336;SDS011;45115;52.002;4.686;2023-04-24T00:12:08;6.80;;;3.60;;
59336;SDS011;45115;52.002;4.686;2023-04-24T00:14:35;7.85;;;3.92;;
59336;SDS011;45115;52.002;4.686;2023-04-24T00:17:02;9.05;;;4.15;;
59336;SDS011;45115;52.002;4.686;2023-04-24T00:19:30;12.38;;;5.15;;
59336;SDS011;45115;52.002;4.686;2023-04-24T00:21:56;9.70;;;5.40;;
59336;SDS011;45115;52.002;4.686;2023-04-24T00:24:23;9.98;;;4.53;;
59336;SDS011;45115;52.002;4.686;2023-04-24T00:26:50;9.23;;;4.45;;
59336;SDS011;45115;52.002;4.686;2023-04-24T00:29:16;12.30;;;4.78;;
59336;SDS011;45115;52.002;4.686;2023-04-24T00:31:43;10.05;;;4.85;;
59336;SDS011;45115;52.002;4.686;2023-04-24T00:34:09;8.77;;;4.75;;
59336;SDS011;45115;52.002;4.686;2023-04-24T00:36:38;4.95;;;3.67;;
59336;SDS011;45115;52.002;4.686;2023-04-24T00:39:04;7.75;;;3.92;;
59336;SDS011;45115;52.002;4.686;2023-04-24T00:41:33;5.68;;;3.20;;
59336;SDS011;45115;52.002;4.686;2023-04-24T00:44:00;6.22;;;3.17;;
59336;SDS011;45115;52.002;4.686;2023-04-24T00:46:27;4.97;;;3.05;;
59336;SDS011;45115;52.002;4.686;2023-04-24T00:48:54;5.15;;;2.90;;
59336;SDS011;45115;52.002;4.686;2023-04-24T00:51:22;8.13;;;3.30;;
59336;SDS011;45115;52.002;4.686;2023-04-24T00:53:51;6.88;;;3.10;;
59336;SDS011;45115;52.002;4.686;2023-04-24T00:56:17;7.40;;;3.17;;
59336;SDS011;45115;52.002;4.686;2023-04-24T00:58:44;6.97;;;3.25;;
59336;SDS011;45115;52.002;4.686;2023-04-24T01:01:11;6.00;;;3.38;;
59336;SDS011;45115;52.002;4.686;2023-04-24T01:03:38;6.05;;;3.38;;
59336;SDS011;45115;52.002;4.686;2023-04-24T01:06:06;7.57;;;3.50;;
59336;SDS011;45115;52.002;4.686;2023-04-24T01:08:33;7.97;;;3.70;;
59336;SDS011;45115;52.002;4.686;2023-04-24T01:11:04;7.60;;;3.80;;
59336;SDS011;45115;52.002;4.686;2023-04-24T01:13:31;8.27;;;4.55;;
59336;SDS011;45115;52.002;4.686;2023-04-24T01:15:58;7.78;;;3.88;;
59336;SDS011;45115;52.002;4.686;2023-04-24T01:18:26;8.23;;;3.70;;
59336;SDS011;45115;52.002;4.686;2023-04-24T01:20:54;7.68;;;4.07;;
59336;SDS011;45115;52.002;4.686;2023-04-24T01:23:24;9.93;;;4.32;;
59336;SDS011;45115;52.002;4.686;2023-04-24T01:25:51;9.20;;;4.63;;
59336;SDS011;45115;52.002;4.686;2023-04-24T01:28:18;11.05;;;5.30;;
59336;SDS011;45115;52.002;4.686;2023-04-24T01:30:45;11.20;;;4.90;;
59336;SDS011;45115;52.002;4.686;2023-04-24T01:33:12;9.57;;;5.13;;
59336;SDS011;45115;52.002;4.686;2023-04-24T01:35:39;9.75;;;4.00;;
59336;SDS011;45115;52.002;4.686;2023-04-24T01:38:06;8.90;;;4.10;;
59336;SDS011;45115;52.002;4.686;2023-04-24T01:40:35;11.05;;;4.30;;
59336;SDS011;45115;52.002;4.686;2023-04-24T01:43:02;9.52;;;4.57;;
59336;SDS011;45115;52.002;4.686;2023-04-24T01:45:29;10.50;;;4.78;;
59336;SDS011;45115;52.002;4.686;2023-04-24T01:47:55;11.30;;;4.90;;
59336;SDS011;45115;52.002;4.686;2023-04-24T01:50:23;9.98;;;4.40;;
59336;SDS011;45115;52.002;4.686;2023-04-24T01:52:49;11.07;;;4.97;;
59336;SDS011;45115;52.002;4.686;2023-04-24T01:55:16;9.82;;;4.40;;
59336;SDS011;45115;52.002;4.686;2023-04-24T01:57:45;8.45;;;4.20;;
59336;SDS011;45115;52.002;4.686;2023-04-24T02:00:12;11.25;;;5.07;;
59336;SDS011;45115;52.002;4.686;2023-04-24T02:02:39;10.38;;;4.75;;
59336;SDS011;45115;52.002;4.686;2023-04-24T02:05:06;7.75;;;3.78;;
59336;SDS011;45115;52.002;4.686;2023-04-24T02:07:35;6.95;;;3.20;;
59336;SDS011;45115;52.002;4.686;2023-04-24T02:10:02;7.95;;;3.83;;
59336;SDS011;45115;52.002;4.686;2023-04-24T02:12:30;6.47;;;2.92;;
59336;SDS011;45115;52.002;4.686;2023-04-24T02:14:58;5.88;;;2.70;;
59336;SDS011;45115;52.002;4.686;2023-04-24T02:17:25;3.90;;;2.55;;
59336;SDS011;45115;52.002;4.686;2023-04-24T02:19:52;7.60;;;2.92;;
59336;SDS011;45115;52.002;4.686;2023-04-24T02:22:18;4.85;;;2.55;;
59336;SDS011;45115;52.002;4.686;2023-04-24T02:24:45;3.90;;;2.28;;
59336;SDS011;45115;52.002;4.686;2023-04-24T02:27:14;5.35;;;2.53;;
59336;SDS011;45115;52.002;4.686;2023-04-24T02:29:41;4.60;;;2.03;;
59336;SDS011;45115;52.002;4.686;2023-04-24T02:32:09;3.55;;;1.92;;
59336;SDS011;45115;52.002;4.686;2023-04-24T02:34:37;3.63;;;1.90;;
59336;SDS011;45115;52.002;4.686;2023-04-24T02:37:03;4.80;;;2.30;;
59336;SDS011;45115;52.002;4.686;2023-04-24T02:39:30;3.95;;;2.15;;
59336;SDS011;45115;52.002;4.686;2023-04-24T02:41:57;3.92;;;2.22;;
59336;SDS011;45115;52.002;4.686;2023-04-24T02:44:23;4.55;;;2.50;;
59336;SDS011;45115;52.002;4.686;2023-04-24T02:46:50;5.45;;;2.58;;
59336;SDS011;45115;52.002;4.686;2023-04-24T02:49:18;4.65;;;2.20;;
59336;SDS011;45115;52.002;4.686;2023-04-24T02:51:44;9.38;;;3.33;;
59336;SDS011;45115;52.002;4.686;2023-04-24T02:54:11;5.10;;;2.78;;
59336;SDS011;45115;52.002;4.686;2023-04-24T02:56:37;5.82;;;3.33;;
59336;SDS011;45115;52.002;4.686;2023-04-24T02:59:06;5.68;;;2.88;;
59336;SDS011;45115;52.002;4.686;2023-04-24T03:01:32;5.70;;;3.00;;
59336;SDS011;45115;52.002;4.686;2023-04-24T03:03:59;6.63;;;3.50;;
59336;SDS011;45115;52.002;4.686;2023-04-24T03:06:27;6.63;;;2.97;;
59336;SDS011;45115;52.002;4.686;2023-04-24T03:08:53;7.57;;;3.25;;
59336;SDS011;45115;52.002;4.686;2023-04-24T03:11:20;5.30;;;2.60;;
59336;SDS011;45115;52.002;4.686;2023-04-24T03:13:47;3.40;;;1.98;;
59336;SDS011;45115;52.002;4.686;2023-04-24T03:16:13;4.47;;;1.70;;
59336;SDS011;45115;52.002;4.686;2023-04-24T03:18:40;2.80;;;1.08;;
59336;SDS011;45115;52.002;4.686;2023-04-24T03:21:08;2.65;;;1.02;;
59336;SDS011;45115;52.002;4.686;2023-04-24T03:23:36;1.52;;;1.10;;
59336;SDS011;45115;52.002;4.686;2023-04-24T03:26:03;2.40;;;0.85;;
59336;SDS011;45115;52.002;4.686;2023-04-24T03:28:30;3.22;;;1.20;;
59336;SDS011;45115;52.002;4.686;2023-04-24T03:30:59;2.35;;;1.23;;
59336;SDS011;45115;52.002;4.686;2023-04-24T03:36:00;2.58;;;1.20;;
59336;SDS011;45115;52.002;4.686;2023-04-24T03:38:36;2.55;;;1.20;;
59336;SDS011;45115;52.002;4.686;2023-04-24T03:41:17;5.70;;;1.40;;
59336;SDS011;45115;52.002;4.686;2023-04-24T03:43:54;3.83;;;1.38;;
59336;SDS011;45115;52.002;4.686;2023-04-24T03:46:21;2.70;;;1.33;;
59336;SDS011;45115;52.002;4.686;2023-04-24T03:48:55;1.85;;;1.25;;
59336;SDS011;45115;52.002;4.686;2023-04-24T03:51:26;3.42;;;1.40;;
59336;SDS011;45115;52.002;4.686;2023-04-24T03:54:01;3.60;;;1.77;;
59336;SDS011;45115;52.002;4.686;2023-04-24T03:56:30;1.52;;;1.20;;
59336;SDS011;45115;52.002;4.686;2023-04-24T03:58:57;2.78;;;1.80;;
59336;SDS011;45115;52.002;4.686;2023-04-24T04:01:23;2.00;;;1.13;;
59336;SDS011;45115;52.002;4.686;2023-04-24T04:04:08;3.30;;;1.20;;
59336;SDS011;45115;52.002;4.686;2023-04-24T04:06:36;2.85;;;1.13;;
59336;SDS011;45115;52.002;4.686;2023-04-24T04:09:05;3.65;;;1.42;;
59336;SDS011;45115;52.002;4.686;2023-04-24T04:11:32;1.73;;;1.17;;
59336;SDS011;45115;52.002;4.686;2023-04-24T04:13:58;1.80;;;1.27;;
59336;SDS011;45115;52.002;4.686;2023-04-24T04:16:25;1.42;;;1.02;;
59336;SDS011;45115;52.002;4.686;2023-04-24T04:18:58;3.38;;;1.30;;
59336;SDS011;45115;52.002;4.686;2023-04-24T04:21:25;2.22;;;1.27;;
59336;SDS011;45115;52.002;4.686;2023-04-24T04:24:01;3.85;;;1.30;;
59336;SDS011;45115;52.002;4.686;2023-04-24T04:26:34;3.80;;;1.45;;
59336;SDS011;45115;52.002;4.686;2023-04-24T04:29:07;3.10;;;1.83;;
59336;SDS011;45115;52.002;4.686;2023-04-24T04:31:39;2.42;;;1.60;;
59336;SDS011;45115;52.002;4.686;2023-04-24T04:34:09;2.83;;;1.70;;
59336;SDS011;45115;52.002;4.686;2023-04-24T04:36:37;3.42;;;1.85;;
59336;SDS011;45115;52.002;4.686;2023-04-24T04:39:40;4.03;;;1.88;;
59336;SDS011;45115;52.002;4.686;2023-04-24T04:42:12;3.78;;;1.80;;
59336;SDS011;45115;52.002;4.686;2023-04-24T04:44:42;3.13;;;1.95;;
59336;SDS011;45115;52.002;4.686;2023-04-24T04:47:14;2.70;;;1.90;;
59336;SDS011;45115;52.002;4.686;2023-04-24T04:49:42;3.65;;;2.03;;
59336;SDS011;45115;52.002;4.686;2023-04-24T04:52:16;3.58;;;2.03;;
59336;SDS011;45115;52.002;4.686;2023-04-24T04:54:45;3.22;;;1.67;;
59336;SDS011;45115;52.002;4.686;2023-04-24T04:57:13;7.15;;;2.10;;
59336;SDS011;45115;52.002;4.686;2023-04-24T04:59:40;5.53;;;2.85;;
59336;SDS011;45115;52.002;4.686;2023-04-24T05:02:12;3.08;;;2.33;;
59336;SDS011;45115;52.002;4.686;2023-04-24T05:04:39;7.97;;;3.08;;
59336;SDS011;45115;52.002;4.686;2023-04-24T05:07:06;6.47;;;3.63;;
59336;SDS011;45115;52.002;4.686;2023-04-24T05:09:37;10.93;;;4.45;;
59336;SDS011;45115;52.002;4.686;2023-04-24T05:12:05;9.55;;;4.72;;
59336;SDS011;45115;52.002;4.686;2023-04-24T05:14:38;11.75;;;5.20;;
59336;SDS011;45115;52.002;4.686;2023-04-24T05:17:05;13.73;;;6.15;;
59336;SDS011;45115;52.002;4.686;2023-04-24T05:19:32;14.52;;;6.63;;
59336;SDS011;45115;52.002;4.686;2023-04-24T05:22:01;13.02;;;5.32;;
59336;SDS011;45115;52.002;4.686;2023-04-24T05:24:29;13.93;;;5.97;;
59336;SDS011;45115;52.002;4.686;2023-04-24T05:27:05;13.98;;;6.47;;
59336;SDS011;45115;52.002;4.686;2023-04-24T05:29:40;16.60;;;7.93;;
59336;SDS011;45115;52.002;4.686;2023-04-24T05:32:07;17.90;;;9.07;;
59336;SDS011;45115;52.002;4.686;2023-04-24T05:34:34;22.70;;;10.95;;
59336;SDS011;45115;52.002;4.686;2023-04-24T05:37:01;25.50;;;11.52;;
59336;SDS011;45115;52.002;4.686;2023-04-24T05:39:28;23.42;;;11.93;;
59336;SDS011;45115;52.002;4.686;2023-04-24T05:41:55;29.70;;;13.55;;
59336;SDS011;45115;52.002;4.686;2023-04-24T05:44:23;30.77;;;14.80;;
59336;SDS011;45115;52.002;4.686;2023-04-24T05:46:51;29.05;;;14.05;;
59336;SDS011;45115;52.002;4.686;2023-04-24T05:49:17;32.03;;;14.70;;
59336;SDS011;45115;52.002;4.686;2023-04-24T05:51:45;27.23;;;14.32;;
59336;SDS011;45115;52.002;4.686;2023-04-24T05:54:12;32.53;;;14.20;;
59336;SDS011;45115;52.002;4.686;2023-04-24T05:56:38;27.90;;;12.85;;
59336;SDS011;45115;52.002;4.686;2023-04-24T05:59:06;25.25;;;13.02;;
59336;SDS011;45115;52.002;4.686;2023-04-24T06:01:33;28.17;;;12.35;;
59336;SDS011;45115;52.002;4.686;2023-04-24T06:04:11;23.92;;;11.82;;
59336;SDS011;45115;52.002;4.686;2023-04-24T06:06:39;27.33;;;11.60;;
59336;SDS011;45115;52.002;4.686;2023-04-24T06:09:05;29.40;;;13.40;;
59336;SDS011;45115;52.002;4.686;2023-04-24T06:11:33;25.67;;;11.65;;
59336;SDS011;45115;52.002;4.686;2023-04-24T06:14:00;24.92;;;10.98;;
59336;SDS011;45115;52.002;4.686;2023-04-24T06:16:46;26.40;;;11.65;;
59336;SDS011;45115;52.002;4.686;2023-04-24T06:19:26;28.40;;;12.02;;
59336;SDS011;45115;52.002;4.686;2023-04-24T06:21:53;23.98;;;11.07;;
59336;SDS011;45115;52.002;4.686;2023-04-24T06:24:19;22.30;;;10.10;;
59336;SDS011;45115;52.002;4.686;2023-04-24T06:26:46;22.92;;;10.05;;
59336;SDS011;45115;52.002;4.686;2023-04-24T06:29:13;23.75;;;10.10;;
59336;SDS011;45115;52.002;4.686;2023-04-24T06:31:39;28.20;;;10.00;;
59336;SDS011;45115;52.002;4.686;2023-04-24T06:34:06;23.80;;;10.65;;
59336;SDS011;45115;52.002;4.686;2023-04-24T06:36:34;26.65;;;8.75;;
59336;SDS011;45115;52.002;4.686;2023-04-24T06:39:01;24.25;;;9.40;;
59336;SDS011;45115;52.002;4.686;2023-04-24T06:41:27;21.10;;;8.57;;
59336;SDS011;45115;52.002;4.686;2023-04-24T06:43:54;23.50;;;7.57;;
59336;SDS011;45115;52.002;4.686;2023-04-24T06:46:21;16.45;;;6.90;;
59336;SDS011;45115;52.002;4.686;2023-04-24T06:48:49;21.23;;;7.85;;
59336;SDS011;45115;52.002;4.686;2023-04-24T06:51:15;23.85;;;8.40;;
59336;SDS011;45115;52.002;4.686;2023-04-24T06:53:45;18.48;;;7.88;;
59336;SDS011;45115;52.002;4.686;2023-04-24T06:56:11;23.42;;;7.50;;
59336;SDS011;45115;52.002;4.686;2023-04-24T06:58:38;26.50;;;8.80;;
59336;SDS011;45115;52.002;4.686;2023-04-24T07:01:04;21.70;;;7.50;;
59336;SDS011;45115;52.002;4.686;2023-04-24T07:03:31;18.60;;;7.25;;
59336;SDS011;45115;52.002;4.686;2023-04-24T07:05:58;21.50;;;7.10;;
59336;SDS011;45115;52.002;4.686;2023-04-24T07:08:25;19.77;;;6.65;;
59336;SDS011;45115;52.002;4.686;2023-04-24T07:10:53;18.65;;;7.32;;
59336;SDS011;45115;52.002;4.686;2023-04-24T07:13:21;20.80;;;7.13;;
59336;SDS011;45115;52.002;4.686;2023-04-24T07:15:48;14.73;;;6.07;;
59336;SDS011;45115;52.002;4.686;2023-04-24T07:18:15;15.98;;;5.68;;
59336;SDS011;45115;52.002;4.686;2023-04-24T07:20:43;15.80;;;5.40;;
59336;SDS011;45115;52.002;4.686;2023-04-24T07:23:10;13.52;;;5.25;;
59336;SDS011;45115;52.002;4.686;2023-04-24T07:25:36;19.17;;;6.18;;
59336;SDS011;45115;52.002;4.686;2023-04-24T07:28:05;13.85;;;5.13;;
59336;SDS011;45115;52.002;4.686;2023-04-24T07:30:32;15.80;;;5.30;;
59336;SDS011;45115;52.002;4.686;2023-04-24T07:32:59;18.60;;;5.07;;
59336;SDS011;45115;52.002;4.686;2023-04-24T07:35:25;13.07;;;4.93;;
59336;SDS011;45115;52.002;4.686;2023-04-24T07:37:52;15.82;;;5.05;;
59336;SDS011;45115;52.002;4.686;2023-04-24T07:40:19;22.40;;;5.75;;
59336;SDS011;45115;52.002;4.686;2023-04-24T07:42:47;12.75;;;3.90;;
59336;SDS011;45115;52.002;4.686;2023-04-24T07:45:15;18.33;;;4.93;;
59336;SDS011;45115;52.002;4.686;2023-04-24T07:47:42;13.52;;;4.43;;
59336;SDS011;45115;52.002;4.686;2023-04-24T07:50:10;12.93;;;3.92;;
59336;SDS011;45115;52.002;4.686;2023-04-24T07:52:37;14.23;;;4.15;;
59336;SDS011;45115;52.002;4.686;2023-04-24T07:55:05;17.05;;;4.88;;
59336;SDS011;45115;52.002;4.686;2023-04-24T07:57:32;9.20;;;4.20;;
59336;SDS011;45115;52.002;4.686;2023-04-24T07:59:58;15.73;;;3.67;;
59336;SDS011;45115;52.002;4.686;2023-04-24T08:02:26;16.35;;;4.20;;
59336;SDS011;45115;52.002;4.686;2023-04-24T08:04:54;14.80;;;3.72;;
59336;SDS011;45115;52.002;4.686;2023-04-24T08:07:21;16.98;;;3.95;;
59336;SDS011;45115;52.002;4.686;2023-04-24T08:09:47;12.88;;;3.75;;
59336;SDS011;45115;52.002;4.686;2023-04-24T08:12:14;13.52;;;3.95;;
59336;SDS011;45115;52.002;4.686;2023-04-24T08:14:41;14.20;;;4.53;;
59336;SDS011;45115;52.002;4.686;2023-04-24T08:17:07;11.20;;;4.03;;
59336;SDS011;45115;52.002;4.686;2023-04-24T08:19:36;12.40;;;4.05;;
59336;SDS011;45115;52.002;4.686;2023-04-24T08:22:03;14.07;;;4.28;;
59336;SDS011;45115;52.002;4.686;2023-04-24T08:24:30;11.00;;;3.30;;
59336;SDS011;45115;52.002;4.686;2023-04-24T08:26:56;9.13;;;3.58;;
59336;SDS011;45115;52.002;4.686;2023-04-24T08:29:23;12.32;;;3.58;;
59336;SDS011;45115;52.002;4.686;2023-04-24T08:31:51;12.95;;;3.60;;
59336;SDS011;45115;52.002;4.686;2023-04-24T08:34:19;12.57;;;3.35;;
59336;SDS011;45115;52.002;4.686;2023-04-24T08:36:47;5.03;;;3.00;;
59336;SDS011;45115;52.002;4.686;2023-04-24T08:39:14;7.78;;;3.20;;
59336;SDS011;45115;52.002;4.686;2023-04-24T08:41:41;8.25;;;3.13;;
59336;SDS011;45115;52.002;4.686;2023-04-24T08:44:10;11.05;;;3.60;;
59336;SDS011;45115;52.002;4.686;2023-04-24T08:46:37;8.32;;;2.55;;
59336;SDS011;45115;52.002;4.686;2023-04-24T08:49:05;8.20;;;2.92;;
59336;SDS011;45115;52.002;4.686;2023-04-24T08:51:32;5.93;;;2.80;;
59336;SDS011;45115;52.002;4.686;2023-04-24T08:54:00;7.78;;;2.65;;
59336;SDS011;45115;52.002;4.686;2023-04-24T08:56:28;5.43;;;3.00;;
59336;SDS011;45115;52.002;4.686;2023-04-24T08:58:56;7.60;;;3.45;;
59336;SDS011;45115;52.002;4.686;2023-04-24T09:01:23;5.10;;;2.30;;
59336;SDS011;45115;52.002;4.686;2023-04-24T09:03:51;9.63;;;2.88;;
59336;SDS011;45115;52.002;4.686;2023-04-24T09:06:20;5.50;;;2.45;;
59336;SDS011;45115;52.002;4.686;2023-04-24T09:08:48;7.50;;;3.13;;
59336;SDS011;45115;52.002;4.686;2023-04-24T09:11:20;8.40;;;2.58;;
59336;SDS011;45115;52.002;4.686;2023-04-24T09:13:48;4.22;;;2.10;;
59336;SDS011;45115;52.002;4.686;2023-04-24T09:16:15;9.77;;;2.70;;
59336;SDS011;45115;52.002;4.686;2023-04-24T09:18:42;7.03;;;2.15;;
59336;SDS011;45115;52.002;4.686;2023-04-24T09:21:09;6.35;;;2.17;;
59336;SDS011;45115;52.002;4.686;2023-04-24T09:23:36;2.47;;;1.58;;
59336;SDS011;45115;52.002;4.686;2023-04-24T09:26:03;6.32;;;1.80;;
59336;SDS011;45115;52.002;4.686;2023-04-24T09:28:33;5.13;;;1.70;;
59336;SDS011;45115;52.002;4.686;2023-04-24T09:31:05;8.23;;;1.75;;
59336;SDS011;45115;52.002;4.686;2023-04-24T09:33:33;5.10;;;1.80;;
59336;SDS011;45115;52.002;4.686;2023-04-24T09:36:00;5.72;;;1.98;;
59336;SDS011;45115;52.002;4.686;2023-04-24T09:38:30;3.42;;;1.80;;
59336;SDS011;45115;52.002;4.686;2023-04-24T09:40:59;5.72;;;1.60;;
59336;SDS011;45115;52.002;4.686;2023-04-24T09:43:27;4.63;;;1.63;;
59336;SDS011;45115;52.002;4.686;2023-04-24T09:45:56;5.72;;;1.80;;
59336;SDS011;45115;52.002;4.686;2023-04-24T09:48:30;8.70;;;2.27;;
59336;SDS011;45115;52.002;4.686;2023-04-24T09:50:57;4.47;;;2.03;;
59336;SDS011;45115;52.002;4.686;2023-04-24T09:53:24;4.20;;;1.92;;
59336;SDS011;45115;52.002;4.686;2023-04-24T09:55:51;6.45;;;2.00;;
59336;SDS011;45115;52.002;4.686;2023-04-24T09:58:18;6.63;;;1.58;;
59336;SDS011;45115;52.002;4.686;2023-04-24T10:00:53;7.38;;;1.73;;
59336;SDS011;45115;52.002;4.686;2023-04-24T10:03:23;2.75;;;1.40;;
59336;SDS011;45115;52.002;4.686;2023-04-24T10:05:52;2.72;;;1.30;;
59336;SDS011;45115;52.002;4.686;2023-04-24T10:08:19;3.38;;;1.52;;
59336;SDS011;45115;52.002;4.686;2023-04-24T10:10:47;3.80;;;1.77;;
59336;SDS011;45115;52.002;4.686;2023-04-24T10:13:14;5.53;;;1.70;;
59336;SDS011;45115;52.002;4.686;2023-04-24T10:15:41;2.70;;;1.45;;
59336;SDS011;45115;52.002;4.686;2023-04-24T10:18:09;7.85;;;2.00;;
59336;SDS011;45115;52.002;4.686;2023-04-24T10:20:39;4.07;;;1.48;;
59336;SDS011;45115;52.002;4.686;2023-04-24T10:23:06;5.00;;;2.13;;
59336;SDS011;45115;52.002;4.686;2023-04-24T10:25:34;3.92;;;1.40;;
59336;SDS011;45115;52.002;4.686;2023-04-24T10:28:02;3.72;;;1.60;;
59336;SDS011;45115;52.002;4.686;2023-04-24T10:30:30;4.90;;;1.90;;
59336;SDS011;45115;52.002;4.686;2023-04-24T10:33:00;4.25;;;1.25;;
59336;SDS011;45115;52.002;4.686;2023-04-24T10:35:27;2.88;;;1.40;;
59336;SDS011;45115;52.002;4.686;2023-04-24T10:37:59;2.47;;;1.13;;
59336;SDS011;45115;52.002;4.686;2023-04-24T10:40:31;1.85;;;0.93;;
59336;SDS011;45115;52.002;4.686;2023-04-24T10:43:01;9.57;;;1.70;;
59336;SDS011;45115;52.002;4.686;2023-04-24T10:45:31;3.47;;;1.27;;
59336;SDS011;45115;52.002;4.686;2023-04-24T10:47:59;4.03;;;1.10;;
59336;SDS011;45115;52.002;4.686;2023-04-24T10:50:27;5.13;;;1.40;;
59336;SDS011;45115;52.002;4.686;2023-04-24T10:53:06;7.82;;;1.98;;
59336;SDS011;45115;52.002;4.686;2023-04-24T10:55:41;4.38;;;1.65;;
59336;SDS011;45115;52.002;4.686;2023-04-24T10:58:10;5.82;;;1.63;;
59336;SDS011;45115;52.002;4.686;2023-04-24T11:00:37;6.38;;;1.70;;
59336;SDS011;45115;52.002;4.686;2023-04-24T11:03:05;7.13;;;1.80;;
59336;SDS011;45115;52.002;4.686;2023-04-24T11:05:51;9.57;;;2.13;;
59336;SDS011;45115;52.002;4.686;2023-04-24T11:08:23;6.28;;;2.05;;
59336;SDS011;45115;52.002;4.686;2023-04-24T11:10:55;4.50;;;1.80;;
59336;SDS011;45115;52.002;4.686;2023-04-24T11:13:27;4.78;;;1.50;;
59336;SDS011;45115;52.002;4.686;2023-04-24T11:16:15;6.40;;;1.92;;
59336;SDS011;45115;52.002;4.686;2023-04-24T11:18:50;8.40;;;2.10;;
59336;SDS011;45115;52.002;4.686;2023-04-24T11:21:19;4.03;;;1.70;;
59336;SDS011;45115;52.002;4.686;2023-04-24T11:23:48;5.10;;;1.35;;
59336;SDS011;45115;52.002;4.686;2023-04-24T11:26:17;7.10;;;1.40;;
59336;SDS011;45115;52.002;4.686;2023-04-24T11:28:48;1.30;;;0.90;;
59336;SDS011;45115;52.002;4.686;2023-04-24T11:31:34;2.33;;;0.95;;
59336;SDS011;45115;52.002;4.686;2023-04-24T11:34:05;2.55;;;1.35;;
59336;SDS011;45115;52.002;4.686;2023-04-24T11:36:33;3.95;;;1.20;;
59336;SDS011;45115;52.002;4.686;2023-04-24T11:39:02;3.85;;;1.50;;
59336;SDS011;45115;52.002;4.686;2023-04-24T11:41:29;6.15;;;1.65;;
59336;SDS011;45115;52.002;4.686;2023-04-24T11:43:56;2.78;;;1.63;;
59336;SDS011;45115;52.002;4.686;2023-04-24T11:46:26;6.00;;;1.60;;
59336;SDS011;45115;52.002;4.686;2023-04-24T11:48:53;5.07;;;1.73;;
59336;SDS011;45115;52.002;4.686;2023-04-24T11:51:20;4.25;;;1.70;;
59336;SDS011;45115;52.002;4.686;2023-04-24T11:53:48;7.85;;;2.17;;
59336;SDS011;45115;52.002;4.686;2023-04-24T11:56:18;4.45;;;1.55;;
59336;SDS011;45115;52.002;4.686;2023-04-24T11:58:45;4.50;;;2.73;;
59336;SDS011;45115;52.002;4.686;2023-04-24T12:01:12;5.78;;;1.90;;
59336;SDS011;45115;52.002;4.686;2023-04-24T12:03:39;5.30;;;1.90;;
59336;SDS011;45115;52.002;4.686;2023-04-24T12:06:08;8.45;;;2.30;;
59336;SDS011;45115;52.002;4.686;2023-04-24T12:08:36;6.10;;;2.38;;
59336;SDS011;45115;52.002;4.686;2023-04-24T12:11:04;8.07;;;2.42;;
59336;SDS011;45115;52.002;4.686;2023-04-24T12:13:34;8.90;;;2.50;;
59336;SDS011;45115;52.002;4.686;2023-04-24T12:16:01;7.05;;;2.72;;
59336;SDS011;45115;52.002;4.686;2023-04-24T12:18:30;6.95;;;2.20;;
59336;SDS011;45115;52.002;4.686;2023-04-24T12:23:42;6.72;;;2.60;;
59336;SDS011;45115;52.002;4.686;2023-04-24T12:26:10;7.70;;;2.40;;
59336;SDS011;45115;52.002;4.686;2023-04-24T12:28:38;8.82;;;3.08;;
59336;SDS011;45115;52.002;4.686;2023-04-24T12:31:06;7.40;;;2.33;;
59336;SDS011;45115;52.002;4.686;2023-04-24T12:33:33;7.50;;;2.45;;
59336;SDS011;45115;52.002;4.686;2023-04-24T12:36:01;6.65;;;2.08;;
59336;SDS011;45115;52.002;4.686;2023-04-24T12:38:28;6.57;;;2.40;;
59336;SDS011;45115;52.002;4.686;2023-04-24T12:41:02;8.25;;;2.72;;
59336;SDS011;45115;52.002;4.686;2023-04-24T12:43:30;6.20;;;2.70;;
59336;SDS011;45115;52.002;4.686;2023-04-24T12:45:58;12.00;;;3.58;;
59336;SDS011;45115;52.002;4.686;2023-04-24T12:48:25;10.70;;;3.00;;
59336;SDS011;45115;52.002;4.686;2023-04-24T12:50:51;8.98;;;3.10;;
59336;SDS011;45115;52.002;4.686;2023-04-24T12:53:18;11.57;;;3.30;;
59336;SDS011;45115;52.002;4.686;2023-04-24T12:55:45;9.68;;;3.17;;
59336;SDS011;45115;52.002;4.686;2023-04-24T12:58:17;9.43;;;3.47;;
59336;SDS011;45115;52.002;4.686;2023-04-24T13:00:44;12.35;;;3.63;;
59336;SDS011;45115;52.002;4.686;2023-04-24T13:03:12;10.55;;;3.30;;
59336;SDS011;45115;52.002;4.686;2023-04-24T13:05:39;6.60;;;2.88;;
59336;SDS011;45115;52.002;4.686;2023-04-24T13:08:06;5.45;;;2.88;;
59336;SDS011;45115;52.002;4.686;2023-04-24T13:10:32;9.35;;;3.22;;
59336;SDS011;45115;52.002;4.686;2023-04-24T13:12:59;8.00;;;3.03;;
59336;SDS011;45115;52.002;4.686;2023-04-24T13:15:26;9.15;;;2.75;;
59336;SDS011;45115;52.002;4.686;2023-04-24T13:17:52;9.20;;;3.03;;
59336;SDS011;45115;52.002;4.686;2023-04-24T13:20:20;10.45;;;2.65;;
59336;SDS011;45115;52.002;4.686;2023-04-24T13:22:47;6.60;;;2.75;;
59336;SDS011;45115;52.002;4.686;2023-04-24T13:25:13;10.35;;;3.17;;
59336;SDS011;45115;52.002;4.686;2023-04-24T13:27:42;10.73;;;3.42;;
59336;SDS011;45115;52.002;4.686;2023-04-24T13:30:09;10.65;;;3.10;;
59336;SDS011;45115;52.002;4.686;2023-04-24T13:32:36;7.35;;;2.72;;
59336;SDS011;45115;52.002;4.686;2023-04-24T13:35:03;11.38;;;3.42;;
59336;SDS011;45115;52.002;4.686;2023-04-24T13:37:31;13.57;;;3.90;;
59336;SDS011;45115;52.002;4.686;2023-04-24T13:39:58;10.82;;;3.53;;
59336;SDS011;45115;52.002;4.686;2023-04-24T13:42:24;8.90;;;3.22;;
59336;SDS011;45115;52.002;4.686;2023-04-24T13:44:51;10.88;;;3.28;;
59336;SDS011;45115;52.002;4.686;2023-04-24T13:47:19;6.63;;;2.70;;
59336;SDS011;45115;52.002;4.686;2023-04-24T13:49:45;6.70;;;2.42;;
59336;SDS011;45115;52.002;4.686;2023-04-24T13:52:12;9.23;;;2.97;;
59336;SDS011;45115;52.002;4.686;2023-04-24T13:54:40;9.30;;;2.85;;
59336;SDS011;45115;52.002;4.686;2023-04-24T13:57:07;9.00;;;2.92;;
59336;SDS011;45115;52.002;4.686;2023-04-24T13:59:33;9.63;;;3.13;;
59336;SDS011;45115;52.002;4.686;2023-04-24T14:02:00;6.63;;;2.97;;
59336;SDS011;45115;52.002;4.686;2023-04-24T14:04:27;8.23;;;3.15;;
59336;SDS011;45115;52.002;4.686;2023-04-24T14:06:53;10.25;;;3.53;;
59336;SDS011;45115;52.002;4.686;2023-04-24T14:09:20;7.85;;;3.22;;
59336;SDS011;45115;52.002;4.686;2023-04-24T14:11:48;7.80;;;3.17;;
59336;SDS011;45115;52.002;4.686;2023-04-24T14:14:15;8.63;;;3.00;;
59336;SDS011;45115;52.002;4.686;2023-04-24T14:16:41;10.75;;;3.90;;
59336;SDS011;45115;52.002;4.686;2023-04-24T14:19:08;9.10;;;3.30;;
59336;SDS011;45115;52.002;4.686;2023-04-24T14:21:35;7.90;;;3.22;;
59336;SDS011;45115;52.002;4.686;2023-04-24T14:24:01;9.27;;;3.83;;
59336;SDS011;45115;52.002;4.686;2023-04-24T14:26:28;10.95;;;3.63;;
59336;SDS011;45115;52.002;4.686;2023-04-24T14:28:56;12.82;;;3.58;;
59336;SDS011;45115;52.002;4.686;2023-04-24T14:31:23;13.75;;;5.28;;
59336;SDS011;45115;52.002;4.686;2023-04-24T14:33:50;15.48;;;4.57;;
59336;SDS011;45115;52.002;4.686;2023-04-24T14:36:17;8.95;;;3.92;;
59336;SDS011;45115;52.002;4.686;2023-04-24T14:38:43;10.60;;;4.00;;
59336;SDS011;45115;52.002;4.686;2023-04-24T14:41:10;10.32;;;4.00;;
59336;SDS011;45115;52.002;4.686;2023-04-24T14:43:37;13.80;;;4.82;;
59336;SDS011;45115;52.002;4.686;2023-04-24T14:46:05;11.85;;;4.80;;
59336;SDS011;45115;52.002;4.686;2023-04-24T14:48:31;8.77;;;3.50;;
59336;SDS011;45115;52.002;4.686;2023-04-24T14:50:58;11.73;;;3.92;;
59336;SDS011;45115;52.002;4.686;2023-04-24T14:53:25;14.43;;;4.18;;
59336;SDS011;45115;52.002;4.686;2023-04-24T14:55:52;11.45;;;4.40;;